createdAt,value
2018-12-18T00:00:54.525Z,23.03
2018-12-18T00:03:23.138Z,24.13
2018-12-18T00:05:51.133Z,23.33
2018-12-18T00:08:19.144Z,23.13
2018-12-18T00:10:49.343Z,18.90
2018-12-18T00:13:17.354Z,23.57
2018-12-18T00:15:45.386Z,22.03
2018-12-18T00:18:13.626Z,25.67
2018-12-18T00:20:41.639Z,25.87
2018-12-18T00:23:09.704Z,23.77
2018-12-18T00:25:37.711Z,23.70
2018-12-18T00:28:05.725Z,21.53
2018-12-18T00:30:33.739Z,25.07
2018-12-18T00:33:01.738Z,19.30
2018-12-18T00:35:29.793Z,20.97
2018-12-18T00:37:57.819Z,19.30
2018-12-18T00:40:25.818Z,18.43
2018-12-18T00:42:53.845Z,16.40
2018-12-18T00:45:21.915Z,17.87
2018-12-18T00:47:49.957Z,17.20
2018-12-18T00:50:17.975Z,19.17
2018-12-18T00:52:45.997Z,16.47
2018-12-18T00:55:14.057Z,20.70
2018-12-18T00:57:42.082Z,20.07
2018-12-18T01:00:10.431Z,18.93
2018-12-18T01:02:38.456Z,20.57
2018-12-18T01:05:06.588Z,16.00
2018-12-18T01:07:34.586Z,19.00
2018-12-18T01:10:02.680Z,19.63
2018-12-18T01:12:30.707Z,17.57
2018-12-18T01:14:58.717Z,18.20
2018-12-18T01:17:26.735Z,21.07
2018-12-18T01:19:54.741Z,17.97
2018-12-18T01:22:22.821Z,17.93
2018-12-18T01:24:50.844Z,19.17
2018-12-18T01:27:18.862Z,19.20
2018-12-18T01:29:46.872Z,18.73
2018-12-18T01:32:14.886Z,20.40
2018-12-18T01:34:42.923Z,20.20
2018-12-18T01:37:10.930Z,20.33
2018-12-18T01:39:38.921Z,21.23
2018-12-18T01:42:06.945Z,20.27
2018-12-18T01:44:34.964Z,17.03
2018-12-18T01:47:02.967Z,17.03
2018-12-18T01:49:30.987Z,20.00
2018-12-18T01:51:58.993Z,16.57
2018-12-18T01:54:27.061Z,19.93
2018-12-18T01:56:55.066Z,19.53
2018-12-18T01:59:23.106Z,20.50
2018-12-18T02:01:51.114Z,23.13
2018-12-18T02:04:19.177Z,21.77
2018-12-18T02:06:47.202Z,19.33
2018-12-18T02:09:15.193Z,19.17
2018-12-18T02:11:43.206Z,21.03
2018-12-18T02:14:11.212Z,19.03
2018-12-18T02:16:39.238Z,17.70
2018-12-18T02:19:07.266Z,16.63
2018-12-18T02:21:35.274Z,19.33
2018-12-18T02:24:03.354Z,17.17
2018-12-18T02:26:31.350Z,19.60
2018-12-18T02:28:59.362Z,15.97
2018-12-18T02:31:27.356Z,16.30
2018-12-18T02:33:55.539Z,19.30
2018-12-18T02:36:23.533Z,18.43
2018-12-18T02:38:51.542Z,19.43
2018-12-18T02:41:19.542Z,16.57
2018-12-18T02:43:47.575Z,17.10
2018-12-18T02:46:15.584Z,17.17
2018-12-18T02:48:43.590Z,18.27
2018-12-18T02:51:11.583Z,16.63
2018-12-18T02:53:39.664Z,15.37
2018-12-18T02:56:07.726Z,17.27
2018-12-18T02:58:35.797Z,19.90
2018-12-18T03:01:03.879Z,18.23
2018-12-18T03:03:31.938Z,15.37
2018-12-18T03:05:59.934Z,18.30
2018-12-18T03:08:28.038Z,21.23
2018-12-18T03:10:56.042Z,16.93
2018-12-18T03:13:24.113Z,16.53
2018-12-18T03:15:52.118Z,16.80
2018-12-18T03:18:20.113Z,17.23
2018-12-18T03:20:48.130Z,17.70
2018-12-18T03:23:16.194Z,19.00
2018-12-18T03:25:44.220Z,20.00
2018-12-18T03:28:12.226Z,17.77
2018-12-18T03:30:40.223Z,19.80
2018-12-18T03:33:08.242Z,18.23
2018-12-18T03:35:36.255Z,17.83
2018-12-18T03:38:04.257Z,18.33
2018-12-18T03:40:32.269Z,15.37
2018-12-18T03:43:00.271Z,20.73
2018-12-18T03:45:28.284Z,19.30
2018-12-18T03:47:56.298Z,22.13
2018-12-18T03:50:24.330Z,21.30
2018-12-18T03:52:52.403Z,20.47
2018-12-18T03:55:20.417Z,19.30
2018-12-18T03:57:48.425Z,23.50
2018-12-18T04:00:16.941Z,21.87
2018-12-18T04:02:44.946Z,17.90
2018-12-18T04:05:13.032Z,20.00
2018-12-18T04:07:41.030Z,21.20
2018-12-18T04:10:09.182Z,21.40
2018-12-18T04:12:37.183Z,21.20
2018-12-18T04:15:05.269Z,17.67
2018-12-18T04:17:33.264Z,23.20
2018-12-18T04:20:01.342Z,19.20
2018-12-18T04:22:29.413Z,16.70
2018-12-18T04:24:57.409Z,19.60
2018-12-18T04:27:25.425Z,21.33
2018-12-18T04:29:53.442Z,21.97
2018-12-18T04:32:21.429Z,19.70
2018-12-18T04:34:49.434Z,17.77
2018-12-18T04:37:17.457Z,19.77
2018-12-18T04:39:45.527Z,20.77
2018-12-18T04:42:13.523Z,20.30
2018-12-18T04:44:41.544Z,21.07
2018-12-18T04:47:09.544Z,22.53
2018-12-18T04:49:37.570Z,18.60
2018-12-18T04:52:05.591Z,20.10
2018-12-18T04:54:33.605Z,19.50
2018-12-18T04:57:01.610Z,17.87
2018-12-18T04:59:29.634Z,17.70
2018-12-18T05:01:57.699Z,17.77
2018-12-18T05:04:25.728Z,17.73
2018-12-18T05:06:53.729Z,18.00
2018-12-18T05:09:22.235Z,20.87
2018-12-18T05:11:50.296Z,19.50
2018-12-18T05:14:18.305Z,21.30
2018-12-18T05:16:46.313Z,22.20
2018-12-18T05:19:14.345Z,17.57
2018-12-18T05:21:42.523Z,18.57
2018-12-18T05:24:10.539Z,18.43
2018-12-18T05:26:38.544Z,18.77
2018-12-18T05:29:06.564Z,16.97
2018-12-18T05:31:34.573Z,15.93
2018-12-18T05:34:02.581Z,18.50
2018-12-18T05:36:30.580Z,17.63
2018-12-18T05:38:58.588Z,18.80
2018-12-18T05:41:26.609Z,17.57
2018-12-18T05:43:54.601Z,16.30
2018-12-18T05:46:22.625Z,18.63
2018-12-18T05:48:50.707Z,18.10
2018-12-18T05:51:18.723Z,20.37
2018-12-18T05:53:46.730Z,16.40
2018-12-18T05:56:14.742Z,20.97
2018-12-18T05:58:42.756Z,19.77
2018-12-18T06:01:10.766Z,22.37
2018-12-18T06:03:39.087Z,19.07
2018-12-18T06:06:07.140Z,20.73
2018-12-18T06:08:35.230Z,19.27
2018-12-18T06:11:03.242Z,17.67
2018-12-18T06:13:31.246Z,19.90
2018-12-18T06:15:59.266Z,20.50
2018-12-18T06:18:27.271Z,18.47
2018-12-18T06:20:55.290Z,17.27
2018-12-18T06:23:24.158Z,19.57
2018-12-18T06:25:52.166Z,18.30
2018-12-18T06:28:20.173Z,17.80
2018-12-18T06:30:48.201Z,16.07
2018-12-18T06:33:16.186Z,19.03
2018-12-18T06:35:44.216Z,21.97
2018-12-18T06:38:12.299Z,18.63
2018-12-18T06:40:40.301Z,19.20
2018-12-18T06:43:08.302Z,16.40
2018-12-18T06:45:36.310Z,16.33
2018-12-18T06:48:04.334Z,18.33
2018-12-18T06:50:32.350Z,21.50
2018-12-18T06:53:00.357Z,19.93
2018-12-18T06:55:28.378Z,17.80
2018-12-18T06:57:56.375Z,17.87
2018-12-18T07:00:24.389Z,20.07
2018-12-18T07:02:52.389Z,21.53
2018-12-18T07:05:20.402Z,20.00
2018-12-18T07:07:48.401Z,17.90
2018-12-18T07:10:16.409Z,25.17
2018-12-18T07:12:44.473Z,25.37
2018-12-18T07:15:12.494Z,32.53
2018-12-18T07:17:40.499Z,26.40
2018-12-18T07:20:08.527Z,34.70
2018-12-18T07:22:36.547Z,34.83
2018-12-18T07:25:04.701Z,33.13
2018-12-18T07:27:32.714Z,34.33
2018-12-18T07:30:00.706Z,37.33
2018-12-18T07:32:28.701Z,49.03
2018-12-18T07:34:56.774Z,43.87
2018-12-18T07:37:24.778Z,40.20
2018-12-18T07:39:52.798Z,40.87
2018-12-18T07:42:20.816Z,36.67
2018-12-18T07:44:48.870Z,43.90
2018-12-18T07:47:16.882Z,43.70
2018-12-18T07:49:44.913Z,50.17
2018-12-18T07:52:12.974Z,50.50
2018-12-18T07:54:40.994Z,53.07
2018-12-18T07:57:09.006Z,43.27
2018-12-18T07:59:37.002Z,46.63
2018-12-18T08:02:05.178Z,50.53
2018-12-18T08:04:33.206Z,42.63
2018-12-18T08:07:01.222Z,41.80
2018-12-18T08:09:29.231Z,40.37
2018-12-18T08:11:57.261Z,41.50
2018-12-18T08:14:25.282Z,39.03
2018-12-18T08:16:53.326Z,40.83
2018-12-18T08:19:21.310Z,38.53
2018-12-18T08:21:49.347Z,39.53
2018-12-18T08:24:17.353Z,39.87
2018-12-18T08:26:45.369Z,34.70
2018-12-18T08:29:13.366Z,35.00
2018-12-18T08:31:41.378Z,38.00
2018-12-18T08:34:09.401Z,38.20
2018-12-18T08:36:37.426Z,34.90
2018-12-18T08:39:07.537Z,36.87
2018-12-18T08:41:35.641Z,34.80
2018-12-18T08:44:03.654Z,35.83
2018-12-18T08:46:31.674Z,38.37
2018-12-18T08:49:00.246Z,34.43
2018-12-18T08:51:28.361Z,32.00
2018-12-18T08:53:56.379Z,33.30
2018-12-18T08:56:24.386Z,34.07
2018-12-18T08:58:52.384Z,37.00
2018-12-18T09:01:20.408Z,37.67
2018-12-18T09:03:48.407Z,39.67
2018-12-18T09:06:16.718Z,37.37
2018-12-18T09:08:44.787Z,38.27
2018-12-18T09:11:12.853Z,43.97
2018-12-18T09:13:40.884Z,39.57
2018-12-18T09:16:14.483Z,44.20
2018-12-18T09:18:42.485Z,50.10
2018-12-18T09:21:10.551Z,52.40
2018-12-18T09:23:38.556Z,63.73
2018-12-18T09:26:06.582Z,63.87
2018-12-18T09:28:34.594Z,74.40
2018-12-18T09:31:02.708Z,64.00
2018-12-18T09:33:30.715Z,69.50
2018-12-18T09:35:58.738Z,65.70
2018-12-18T09:38:32.564Z,69.80
2018-12-18T09:41:06.347Z,61.50
2018-12-18T09:43:40.067Z,55.57
2018-12-18T09:46:08.105Z,51.97
2018-12-18T09:48:36.094Z,46.10
2018-12-18T09:51:04.183Z,43.53
2018-12-18T09:53:32.177Z,45.90
2018-12-18T09:56:00.211Z,40.60
2018-12-18T09:58:28.219Z,34.03
2018-12-18T10:00:56.234Z,36.77
2018-12-18T10:03:24.262Z,36.47
2018-12-18T10:05:56.341Z,40.97
2018-12-18T10:08:22.245Z,39.30
2018-12-18T10:10:50.264Z,35.43
2018-12-18T10:13:18.339Z,34.90
2018-12-18T10:15:46.378Z,29.23
2018-12-18T10:18:14.402Z,35.20
2018-12-18T10:20:42.393Z,23.57
2018-12-18T10:23:10.420Z,20.80
2018-12-18T10:25:38.425Z,19.80
2018-12-18T10:28:06.446Z,23.80
2018-12-18T10:30:34.463Z,27.33
2018-12-18T10:33:02.461Z,24.27
2018-12-18T10:35:30.459Z,25.27
2018-12-18T10:37:58.525Z,20.63
2018-12-18T10:40:26.529Z,20.23
2018-12-18T10:42:54.588Z,22.13
2018-12-18T10:45:22.629Z,20.40
2018-12-18T10:47:50.643Z,23.13
2018-12-18T10:50:18.662Z,17.13
2018-12-18T10:52:46.667Z,15.70
2018-12-18T10:55:14.690Z,19.97
2018-12-18T10:57:42.686Z,20.03
2018-12-18T11:00:13.265Z,17.03
2018-12-18T11:02:41.275Z,16.73
2018-12-18T11:05:09.302Z,17.90
2018-12-18T11:07:37.316Z,17.53
2018-12-18T11:10:05.565Z,16.80
2018-12-18T11:12:39.075Z,15.43
2018-12-18T11:15:07.343Z,17.07
2018-12-18T11:17:35.406Z,16.67
2018-12-18T11:20:03.962Z,16.30
2018-12-18T11:22:31.978Z,14.50
2018-12-18T11:25:00.025Z,16.97
2018-12-18T11:27:28.095Z,14.43
2018-12-18T11:29:56.111Z,14.13
2018-12-18T11:32:24.135Z,14.03
2018-12-18T11:34:52.236Z,14.03
2018-12-18T11:37:20.270Z,12.23
2018-12-18T11:39:48.350Z,17.37
2018-12-18T11:42:16.393Z,15.10
2018-12-18T11:44:44.470Z,12.60
2018-12-18T11:47:12.471Z,12.47
2018-12-18T11:49:40.479Z,16.20
2018-12-18T11:52:08.573Z,14.43
2018-12-18T11:54:36.594Z,17.33
2018-12-18T11:57:04.595Z,14.53
2018-12-18T11:59:32.605Z,14.93
2018-12-18T12:02:00.609Z,12.33
2018-12-18T12:04:28.638Z,16.43
2018-12-18T12:06:56.653Z,14.10
2018-12-18T12:09:24.649Z,11.37
2018-12-18T12:11:52.645Z,15.90
2018-12-18T12:14:20.662Z,11.70
2018-12-18T12:16:48.650Z,14.50
2018-12-18T12:19:16.682Z,14.57
2018-12-18T12:21:44.703Z,14.37
2018-12-18T12:24:12.731Z,16.97
2018-12-18T12:26:42.711Z,14.40
2018-12-18T12:29:10.723Z,15.10
2018-12-18T12:31:38.749Z,15.13
2018-12-18T12:34:06.773Z,15.77
2018-12-18T12:36:34.769Z,21.23
2018-12-18T12:39:02.854Z,17.73
2018-12-18T12:41:30.854Z,20.10
2018-12-18T12:43:58.881Z,19.77
2018-12-18T12:46:26.902Z,26.50
2018-12-18T12:48:54.956Z,21.13
2018-12-18T12:51:22.999Z,22.70
2018-12-18T12:53:51.006Z,23.30
2018-12-18T12:56:19.032Z,23.40
2018-12-18T12:58:47.024Z,19.73
2018-12-18T13:01:15.048Z,24.47
2018-12-18T13:03:43.051Z,25.90
2018-12-18T13:06:11.069Z,24.00
2018-12-18T13:08:39.074Z,25.27
2018-12-18T13:11:07.094Z,22.20
2018-12-18T13:13:35.126Z,18.93
2018-12-18T13:16:03.275Z,21.00
2018-12-18T13:18:31.301Z,18.50
2018-12-18T13:20:59.334Z,19.27
2018-12-18T13:23:27.351Z,16.10
2018-12-18T13:25:55.371Z,19.27
2018-12-18T13:28:23.388Z,15.47
2018-12-18T13:30:51.603Z,18.90
2018-12-18T13:33:19.622Z,14.10
2018-12-18T13:35:47.653Z,15.87
2018-12-18T13:38:15.655Z,13.80
2018-12-18T13:40:43.752Z,15.17
2018-12-18T13:43:11.810Z,15.00
2018-12-18T13:45:41.311Z,14.47
2018-12-18T13:48:09.606Z,14.70
2018-12-18T13:50:37.623Z,16.70
2018-12-18T13:53:05.643Z,17.33
2018-12-18T13:55:36.646Z,16.50
2018-12-18T13:58:03.639Z,20.73
2018-12-18T14:00:32.014Z,13.10
2018-12-18T14:03:00.077Z,14.47
2018-12-18T14:05:28.056Z,16.23
2018-12-18T14:07:56.050Z,14.70
2018-12-18T14:10:24.058Z,17.67
2018-12-18T14:12:57.165Z,18.67
2018-12-18T14:15:25.356Z,14.90
2018-12-18T14:17:53.418Z,18.03
2018-12-18T14:20:21.502Z,16.60
2018-12-18T14:22:49.567Z,17.17
2018-12-18T14:25:17.655Z,15.93
2018-12-18T14:27:45.639Z,14.13
2018-12-18T14:30:13.658Z,19.37
2018-12-18T14:32:41.666Z,13.43
2018-12-18T14:35:09.675Z,12.80
2018-12-18T14:37:37.686Z,16.77
2018-12-18T14:40:05.774Z,15.57
2018-12-18T14:42:33.801Z,12.97
2018-12-18T14:45:01.818Z,15.80
2018-12-18T14:47:29.845Z,13.70
2018-12-18T14:49:58.207Z,13.03
2018-12-18T14:52:26.313Z,12.47
2018-12-18T14:54:54.314Z,10.70
2018-12-18T14:57:22.320Z,11.60
2018-12-18T14:59:50.392Z,12.20
2018-12-18T15:02:18.422Z,10.37
2018-12-18T15:04:46.422Z,12.17
2018-12-18T15:07:14.441Z,12.50
2018-12-18T15:09:42.434Z,8.87
2018-12-18T15:12:10.517Z,11.47
2018-12-18T15:14:38.534Z,11.17
2018-12-18T15:17:06.552Z,11.50
2018-12-18T15:19:34.551Z,8.30
2018-12-18T15:22:02.547Z,10.83
2018-12-18T15:24:30.621Z,9.97
2018-12-18T15:26:58.621Z,9.87
2018-12-18T15:29:26.677Z,10.33
2018-12-18T15:31:54.711Z,9.60
2018-12-18T15:34:22.710Z,10.83
2018-12-18T15:36:50.724Z,8.33
2018-12-18T15:39:18.729Z,12.53
2018-12-18T15:41:46.734Z,7.73
2018-12-18T15:44:14.726Z,8.03
2018-12-18T15:46:42.754Z,9.00
2018-12-18T15:49:10.746Z,9.53
2018-12-18T15:51:38.751Z,11.37
2018-12-18T15:54:06.754Z,7.30
2018-12-18T15:56:34.789Z,9.87
2018-12-18T15:59:02.866Z,7.30
2018-12-18T16:01:30.862Z,8.37
2018-12-18T16:03:58.853Z,7.83
2018-12-18T16:06:26.891Z,12.63
2018-12-18T16:08:54.883Z,7.37
2018-12-18T16:11:22.891Z,8.53
2018-12-18T16:13:50.891Z,6.67
2018-12-18T16:16:19.046Z,8.30
2018-12-18T16:18:47.073Z,8.47
2018-12-18T16:21:15.072Z,7.27
2018-12-18T16:23:43.074Z,7.83
2018-12-18T16:26:11.098Z,7.13
2018-12-18T16:28:39.105Z,8.07
2018-12-18T16:31:07.124Z,7.97
2018-12-18T16:33:35.198Z,7.87
2018-12-18T16:36:03.848Z,6.93
2018-12-18T16:38:31.861Z,8.43
2018-12-18T16:40:59.854Z,7.03
2018-12-18T16:43:27.868Z,5.20
2018-12-18T16:45:55.894Z,5.43
2018-12-18T16:48:23.889Z,5.70
2018-12-18T16:50:51.891Z,6.60
2018-12-18T16:53:19.905Z,7.70
2018-12-18T16:55:47.914Z,5.20
2018-12-18T16:58:15.918Z,8.33
2018-12-18T17:00:43.926Z,6.10
2018-12-18T17:03:11.939Z,6.40
2018-12-18T17:05:39.933Z,6.97
2018-12-18T17:08:07.955Z,9.03
2018-12-18T17:10:35.952Z,7.13
2018-12-18T17:13:04.052Z,9.57
2018-12-18T17:15:32.066Z,5.63
2018-12-18T17:18:00.082Z,6.40
2018-12-18T17:20:28.069Z,8.27
2018-12-18T17:22:56.071Z,7.53
2018-12-18T17:25:24.068Z,7.37
2018-12-18T17:27:52.087Z,6.27
2018-12-18T17:30:20.083Z,6.37
2018-12-18T17:32:48.143Z,7.03
2018-12-18T17:35:16.146Z,9.23
2018-12-18T17:37:44.150Z,6.30
2018-12-18T17:40:12.166Z,6.30
2018-12-18T17:42:40.175Z,5.10
2018-12-18T17:45:08.256Z,6.93
2018-12-18T17:47:36.250Z,7.03
2018-12-18T17:50:05.802Z,6.17
2018-12-18T17:52:33.822Z,6.87
2018-12-18T17:55:01.827Z,8.57
2018-12-18T17:57:29.831Z,5.70
2018-12-18T17:59:57.826Z,8.23
2018-12-18T18:02:25.860Z,8.33
2018-12-18T18:04:53.850Z,7.73
2018-12-18T18:07:21.862Z,6.43
2018-12-18T18:09:49.851Z,7.97
2018-12-18T18:12:17.874Z,7.77
2018-12-18T18:14:45.866Z,7.40
2018-12-18T18:17:13.873Z,6.67
2018-12-18T18:19:41.901Z,7.33
2018-12-18T18:22:09.903Z,6.80
2018-12-18T18:24:37.933Z,11.37
2018-12-18T18:27:06.030Z,6.10
2018-12-18T18:29:34.054Z,6.53
2018-12-18T18:32:02.055Z,6.33
2018-12-18T18:34:30.142Z,6.90
2018-12-18T18:36:58.130Z,6.77
2018-12-18T18:39:26.136Z,9.57
2018-12-18T18:41:54.162Z,7.23
2018-12-18T18:44:22.195Z,7.13
2018-12-18T18:46:50.198Z,8.03
2018-12-18T18:49:18.206Z,8.53
2018-12-18T18:51:46.245Z,6.37
2018-12-18T18:54:14.394Z,7.00
2018-12-18T18:56:42.474Z,7.20
2018-12-18T18:59:10.508Z,6.50
2018-12-18T19:01:38.576Z,8.87
2018-12-18T19:04:06.578Z,5.93
2018-12-18T19:06:34.767Z,7.57
2018-12-18T19:09:02.893Z,7.13
2018-12-18T19:11:30.914Z,5.83
2018-12-18T19:13:58.912Z,7.27
2018-12-18T19:16:26.908Z,7.43
2018-12-18T19:18:54.925Z,7.03
2018-12-18T19:21:22.914Z,6.90
2018-12-18T19:23:50.950Z,7.07
2018-12-18T19:26:18.955Z,7.17
2018-12-18T19:28:50.219Z,7.07
2018-12-18T19:31:16.942Z,8.50
2018-12-18T19:33:45.004Z,9.03
2018-12-18T19:36:13.021Z,10.60
2018-12-18T19:38:41.039Z,7.80
2018-12-18T19:41:09.058Z,6.40
2018-12-18T19:43:37.079Z,5.77
2018-12-18T19:46:05.085Z,9.43
2018-12-18T19:48:33.172Z,8.07
2018-12-18T19:51:01.188Z,5.93
2018-12-18T19:53:29.201Z,7.57
2018-12-18T19:55:57.202Z,6.93
2018-12-18T19:58:25.209Z,7.23
2018-12-18T20:00:53.203Z,7.57
2018-12-18T20:03:21.222Z,7.93
2018-12-18T20:05:49.215Z,6.90
2018-12-18T20:08:17.218Z,7.40
2018-12-18T20:10:45.247Z,6.13
2018-12-18T20:13:13.247Z,7.80
2018-12-18T20:15:41.347Z,7.10
2018-12-18T20:18:09.418Z,7.30
2018-12-18T20:20:37.443Z,8.93
2018-12-18T20:23:05.435Z,7.57
2018-12-18T20:25:33.462Z,9.80
2018-12-18T20:28:01.512Z,6.80
2018-12-18T20:30:29.583Z,9.50
2018-12-18T20:32:57.568Z,7.07
2018-12-18T20:35:25.593Z,8.27
2018-12-18T20:37:53.590Z,9.07
2018-12-18T20:40:21.601Z,8.43
2018-12-18T20:42:49.614Z,7.20
2018-12-18T20:45:17.631Z,9.97
2018-12-18T20:47:45.641Z,8.57
2018-12-18T20:50:13.642Z,7.03
2018-12-18T20:52:41.711Z,8.70
2018-12-18T20:55:09.719Z,7.77
2018-12-18T20:57:37.738Z,7.43
2018-12-18T21:00:08.414Z,7.53
2018-12-18T21:02:36.400Z,9.63
2018-12-18T21:05:05.254Z,8.33
2018-12-18T21:07:33.249Z,9.10
2018-12-18T21:10:01.268Z,8.73
2018-12-18T21:12:29.397Z,10.07
2018-12-18T21:15:00.714Z,9.70
2018-12-18T21:17:27.395Z,8.23
2018-12-18T21:19:55.427Z,10.60
2018-12-18T21:22:23.445Z,10.07
2018-12-18T21:24:51.543Z,10.07
2018-12-18T21:27:19.565Z,11.73
2018-12-18T21:29:47.568Z,9.20
2018-12-18T21:32:15.591Z,11.50
2018-12-18T21:34:43.594Z,11.63
2018-12-18T21:37:11.591Z,9.43
2018-12-18T21:39:39.595Z,9.67
2018-12-18T21:42:07.585Z,11.20
2018-12-18T21:44:35.700Z,11.37
2018-12-18T21:47:03.688Z,11.30
2018-12-18T21:49:31.959Z,10.83
2018-12-18T21:52:00.033Z,12.20
2018-12-18T21:54:28.035Z,10.57
2018-12-18T21:56:56.050Z,10.80
2018-12-18T21:59:24.072Z,12.27
2018-12-18T22:01:52.098Z,13.20
2018-12-18T22:04:20.112Z,13.73
2018-12-18T22:06:48.157Z,12.33
2018-12-18T22:09:16.176Z,13.43
2018-12-18T22:11:44.174Z,12.87
2018-12-18T22:14:12.200Z,15.13
2018-12-18T22:16:40.213Z,13.73
2018-12-18T22:19:08.302Z,14.50
2018-12-18T22:21:36.373Z,13.07
2018-12-18T22:24:04.378Z,13.00
2018-12-18T22:26:32.401Z,13.73
2018-12-18T22:29:00.495Z,12.80
2018-12-18T22:31:28.506Z,15.83
2018-12-18T22:33:56.515Z,15.07
2018-12-18T22:36:24.516Z,17.57
2018-12-18T22:38:52.633Z,16.90
2018-12-18T22:41:20.639Z,14.27
2018-12-18T22:46:25.795Z,14.87
2018-12-18T22:48:53.854Z,16.13
2018-12-18T22:51:21.874Z,16.10
2018-12-18T22:53:49.875Z,14.40
2018-12-18T22:56:17.897Z,18.00
2018-12-18T22:58:45.910Z,15.20
2018-12-18T23:01:17.697Z,18.90
2018-12-18T23:03:45.864Z,16.23
2018-12-18T23:06:13.941Z,15.80
2018-12-18T23:08:42.094Z,16.40
2018-12-18T23:11:10.268Z,16.23
2018-12-18T23:13:38.268Z,15.63
2018-12-18T23:16:06.296Z,19.73
2018-12-18T23:18:34.396Z,18.90
2018-12-18T23:21:02.417Z,18.20
2018-12-18T23:23:30.424Z,17.90
2018-12-18T23:25:58.456Z,19.73
2018-12-18T23:28:26.450Z,19.33
2018-12-18T23:30:54.517Z,17.93
2018-12-18T23:33:22.951Z,19.60
2018-12-18T23:35:50.958Z,20.63
2018-12-18T23:38:19.071Z,17.87
2018-12-18T23:40:47.155Z,19.07
2018-12-18T23:43:15.153Z,18.43
2018-12-18T23:45:43.165Z,21.07
2018-12-18T23:48:11.165Z,17.97
2018-12-18T23:50:39.169Z,18.50
2018-12-18T23:53:07.174Z,19.40
2018-12-18T23:55:35.175Z,18.23
2018-12-18T23:58:03.169Z,20.97
